メインページ
METAR-TAF:

METAR-TAF

空港 :

ベイルート, レバノン

緯度: 33-49N, 経度: 035-29E, 海抜: 29m

現時点の気象観測

当レポートは22分前の03:30(UTC)に作成
北/北東の風 11kt
気温 14°C
湿度 72%
気圧 1002 hPa
視程: 7000m
高度2000ftの雲はほとんどない, 積乱雲.
高度2600ftの千切れ雲あり
激しい雷雨, 雨

METAR: OLBA 250330Z 02011KT 7000 TSRA FEW020CB BKN026 14/09 Q1002

時間: 05:52 (03:52 UTC)

予報

当レポートは5時間52分前の22:00(UTC)に作成
予報は25日の 00時(UTC)から 26日の 06時(UTC)まで有効
変向風 3kt
視程: 7000m
高度3000ftの雲は散在している
高度10000ftの雲は散在している
25日の 00時(UTC)から 25日の 09時(UTC)まで一時的に
視程: 5000m
25日の 09時(UTC)から 25日の 12時(UTC)まで徐々に
北/北西の風 10kt、最大20ktの突風を伴う
高度4000ftの雲は散在している
高度18000ftの千切れ雲あり
25日の 18時(UTC)から 25日の 21時(UTC)まで徐々に
南西の風 10kt、最大20ktの突風を伴う

TAF: OLBA 242200Z 2500/2606 VRB03KT 7000 SCT030 SCT100 TEMPO 2500/2509 5000 RA BECMG 2509/2512 33010G20KT SCT040 BKN180 BECMG 2518/2521 23010G20KT

4,000以上の空港の気象観測と天気予報(METAR報とTAF報)

利用可能な観測所は地図上に黄色い丸と赤い丸で示す。

丸の上にカーソルを重ねると観測所名を参照できる。

次にクリックすると気象観測と天気予報を参照できる。

マップの切り替え:黒色「×」印の緑ボタンをクリックして拡大、「-」印の緑ボタンをクリックして縮小、緑色の三角印をクリックして隣りの地図に切り替え


METAR-TAF: